createdAt,value
2023-11-14T00:01:14.098Z,99053.72
2023-11-14T00:03:40.725Z,99049.28
2023-11-14T00:06:07.459Z,99057.03
2023-11-14T00:08:34.005Z,99051.13
2023-11-14T00:11:00.696Z,99049.16
2023-11-14T00:13:27.367Z,99046.47
2023-11-14T00:15:54.231Z,99044.13
2023-11-14T00:18:20.894Z,99038.81
2023-11-14T00:20:47.552Z,99022.69
2023-11-14T00:23:14.106Z,99033.66
2023-11-14T00:25:40.944Z,99033.56
2023-11-14T00:28:08.846Z,99035.09
2023-11-14T00:30:35.412Z,99032.41
2023-11-14T00:33:02.342Z,99021.47
2023-11-14T00:35:28.903Z,99014.63
2023-11-14T00:37:55.780Z,99015.03
2023-11-14T00:40:25.122Z,99008.09
2023-11-14T00:42:51.641Z,99007.09
2023-11-14T00:45:18.183Z,99002.00
2023-11-14T00:47:45.041Z,98999.31
2023-11-14T00:50:13.283Z,98996.31
2023-11-14T00:52:39.850Z,99004.50
2023-11-14T00:55:08.201Z,98990.63
2023-11-14T00:57:34.700Z,98988.75
2023-11-14T01:00:01.257Z,99006.84
2023-11-14T01:02:28.069Z,99001.06
2023-11-14T01:04:54.801Z,98987.53
2023-11-14T01:07:21.473Z,99004.28
2023-11-14T01:09:48.052Z,98991.56
2023-11-14T01:12:14.668Z,98994.16
2023-11-14T01:14:41.287Z,99003.34
2023-11-14T01:17:08.233Z,98999.94
2023-11-14T01:19:41.993Z,99000.03
2023-11-14T01:22:08.993Z,98990.50
2023-11-14T01:24:35.619Z,98955.38
2023-11-14T01:27:03.680Z,98959.78
2023-11-14T01:29:30.207Z,98969.22
2023-11-14T01:31:56.804Z,98972.84
2023-11-14T01:34:24.353Z,98977.19
2023-11-14T01:36:52.438Z,98970.75
2023-11-14T01:39:18.978Z,98979.56
2023-11-14T01:41:46.281Z,98961.06
2023-11-14T01:44:12.887Z,98955.56
2023-11-14T01:46:39.977Z,98947.78
2023-11-14T01:49:06.912Z,98946.34
2023-11-14T01:51:34.274Z,98923.22
2023-11-14T01:54:02.695Z,98938.41
2023-11-14T01:56:30.128Z,98934.38
2023-11-14T01:58:57.839Z,98926.31
2023-11-14T02:01:25.453Z,98934.38
2023-11-14T02:03:52.412Z,98921.22
2023-11-14T02:06:18.920Z,98921.22
2023-11-14T02:08:45.658Z,98943.25
2023-11-14T02:11:12.336Z,98930.66
2023-11-14T02:13:40.015Z,98917.28
2023-11-14T02:16:06.927Z,98915.53
2023-11-14T02:18:33.502Z,98901.06
2023-11-14T02:21:00.091Z,98912.94
2023-11-14T02:23:29.997Z,98918.34
2023-11-14T02:25:57.427Z,98923.88
2023-11-14T02:28:24.029Z,98910.97
2023-11-14T02:30:50.735Z,98906.50
2023-11-14T02:33:17.406Z,98897.09
2023-11-14T02:35:44.145Z,98894.19
2023-11-14T02:38:11.138Z,98905.03
2023-11-14T02:40:38.532Z,98914.19
2023-11-14T02:43:05.351Z,98918.91
2023-11-14T02:45:32.125Z,98909.47
2023-11-14T02:47:58.817Z,98913.41
2023-11-14T02:50:43.610Z,98917.44
2023-11-14T02:53:10.480Z,98904.22
2023-11-14T02:55:37.127Z,98920.75
2023-11-14T02:58:03.642Z,98922.28
2023-11-14T03:00:30.792Z,98925.78
2023-11-14T03:02:57.329Z,98924.53
2023-11-14T03:05:23.836Z,98948.56
2023-11-14T03:07:50.353Z,98979.47
2023-11-14T03:10:16.969Z,98955.38
2023-11-14T03:12:43.497Z,98929.28
2023-11-14T03:15:10.919Z,98931.97
2023-11-14T03:17:37.567Z,98943.69
2023-11-14T03:20:05.546Z,98952.06
2023-11-14T03:22:32.061Z,98937.47
2023-11-14T03:24:58.612Z,98909.00
2023-11-14T03:27:25.108Z,98923.97
2023-11-14T03:29:52.036Z,98915.19
2023-11-14T03:32:18.622Z,98908.34
2023-11-14T03:34:45.246Z,98901.06
2023-11-14T03:37:11.716Z,98885.88
2023-11-14T03:39:41.030Z,98887.53
2023-11-14T03:42:07.628Z,98886.81
2023-11-14T03:44:34.236Z,98893.41
2023-11-14T03:47:00.748Z,98897.06
2023-11-14T03:49:27.249Z,98918.25
2023-11-14T03:51:53.792Z,98928.72
2023-11-14T03:54:20.292Z,98919.63
2023-11-14T03:56:46.800Z,98932.22
2023-11-14T03:59:13.294Z,98920.25
2023-11-14T04:01:39.897Z,98925.44
2023-11-14T04:04:06.584Z,98924.19
2023-11-14T04:06:33.120Z,98924.69
2023-11-14T04:08:59.779Z,98935.28
2023-11-14T04:11:26.326Z,98942.09
2023-11-14T04:13:52.865Z,98935.00
2023-11-14T04:16:20.833Z,98935.28
2023-11-14T04:18:47.508Z,98927.00
2023-11-14T04:21:20.550Z,98940.47
2023-11-14T04:23:47.813Z,98923.69
2023-11-14T04:26:15.973Z,98932.78
2023-11-14T04:28:42.741Z,98943.97
2023-11-14T04:31:09.738Z,98940.47
2023-11-14T04:33:36.292Z,98960.09
2023-11-14T04:36:03.002Z,98963.44
2023-11-14T04:38:29.507Z,98930.09
2023-11-14T04:40:56.075Z,98923.97
2023-11-14T04:43:22.614Z,98921.06
2023-11-14T04:45:49.155Z,98935.31
2023-11-14T04:48:15.888Z,98951.59
2023-11-14T04:50:42.402Z,98953.69
2023-11-14T04:53:09.739Z,98973.81
2023-11-14T04:55:37.901Z,98968.41
2023-11-14T04:58:04.815Z,98976.41
2023-11-14T05:00:31.418Z,98987.16
2023-11-14T05:02:58.025Z,98982.91
2023-11-14T05:05:25.544Z,98988.06
2023-11-14T05:07:52.207Z,98991.19
2023-11-14T05:10:19.025Z,99008.78
2023-11-14T05:12:45.531Z,99011.81
2023-11-14T05:15:12.237Z,99011.16
2023-11-14T05:17:40.551Z,99009.19
2023-11-14T05:20:08.366Z,99017.22
2023-11-14T05:22:35.167Z,99016.31
2023-11-14T05:25:01.730Z,99023.41
2023-11-14T05:27:28.655Z,99006.00
2023-11-14T05:29:56.437Z,99008.16
2023-11-14T05:32:22.942Z,98992.16
2023-11-14T05:34:49.499Z,99007.00
2023-11-14T05:37:16.336Z,99020.56
2023-11-14T05:39:42.831Z,99030.81
2023-11-14T05:42:09.499Z,99033.72
2023-11-14T05:44:36.098Z,99022.53
2023-11-14T05:47:03.194Z,99028.91
2023-11-14T05:49:30.976Z,99043.44
2023-11-14T05:51:57.528Z,99037.41
2023-11-14T05:54:24.042Z,99041.44
2023-11-14T05:56:50.555Z,99040.50
2023-11-14T05:59:17.102Z,99038.84
2023-11-14T06:01:45.142Z,99049.59
2023-11-14T06:04:11.706Z,99048.66
2023-11-14T06:06:38.237Z,99039.63
2023-11-14T06:09:04.779Z,99035.94
2023-11-14T06:11:31.282Z,99032.78
2023-11-14T06:13:57.766Z,99019.72
2023-11-14T06:16:27.125Z,99037.13
2023-11-14T06:18:53.892Z,99022.66
2023-11-14T06:21:20.402Z,99006.63
2023-11-14T06:23:47.422Z,99005.44
2023-11-14T06:26:14.818Z,99017.00
2023-11-14T06:28:41.476Z,99013.50
2023-11-14T06:31:07.967Z,99006.22
2023-11-14T06:33:35.073Z,98985.25
2023-11-14T06:36:01.672Z,98985.97
2023-11-14T06:38:30.934Z,98989.72
2023-11-14T06:40:59.922Z,99004.78
2023-11-14T06:43:26.468Z,99042.38
2023-11-14T06:45:53.046Z,99050.34
2023-11-14T06:48:19.542Z,99068.81
2023-11-14T06:50:47.661Z,99051.06
2023-11-14T06:53:14.870Z,99049.31
2023-11-14T06:55:41.918Z,99028.00
2023-11-14T06:58:09.011Z,99033.41
2023-11-14T07:00:36.647Z,99032.84
2023-11-14T07:03:03.322Z,99059.53
2023-11-14T07:05:31.723Z,99028.53
2023-11-14T07:08:00.673Z,99048.16
2023-11-14T07:10:27.685Z,99011.88
2023-11-14T07:12:54.199Z,99001.78
2023-11-14T07:15:22.221Z,99016.91
2023-11-14T07:17:52.473Z,98989.66
2023-11-14T07:20:22.225Z,99017.66
2023-11-14T07:22:49.796Z,99025.91
2023-11-14T07:25:16.852Z,99023.81
2023-11-14T07:27:43.437Z,99009.88
2023-11-14T07:30:11.214Z,99020.53
2023-11-14T07:32:38.078Z,99017.13
2023-11-14T07:35:04.881Z,99001.22
2023-11-14T07:37:31.849Z,99014.19
2023-11-14T07:39:58.422Z,99034.47
2023-11-14T07:42:24.979Z,99022.00
2023-11-14T07:44:51.629Z,99026.94
2023-11-14T07:47:21.216Z,99038.97
2023-11-14T07:49:48.368Z,99045.69
2023-11-14T07:52:14.951Z,99049.72
2023-11-14T07:54:41.485Z,99044.75
2023-11-14T07:57:07.996Z,99046.97
2023-11-14T07:59:34.536Z,99015.47
2023-11-14T08:02:01.131Z,99064.19
2023-11-14T08:04:27.836Z,99069.84
2023-11-14T08:06:54.470Z,99084.50
2023-11-14T08:09:21.707Z,99107.53
2023-11-14T08:11:48.775Z,99092.63
2023-11-14T08:14:16.252Z,99091.00
2023-11-14T08:16:42.918Z,99079.53
2023-11-14T08:19:09.581Z,99105.88
2023-11-14T08:21:36.150Z,99121.44
2023-11-14T08:24:02.700Z,99128.28
2023-11-14T08:26:30.017Z,99117.44
2023-11-14T08:28:56.727Z,99106.69
2023-11-14T08:31:24.405Z,99094.88
2023-11-14T08:33:51.026Z,99082.50
2023-11-14T08:36:17.672Z,99087.34
2023-11-14T08:38:44.481Z,99106.69
2023-11-14T08:41:11.206Z,99099.00
2023-11-14T08:43:38.293Z,99102.44
2023-11-14T08:46:04.849Z,99135.25
2023-11-14T08:48:31.580Z,99130.94
2023-11-14T08:50:58.170Z,99141.91
2023-11-14T08:53:24.781Z,99141.06
2023-11-14T08:55:53.342Z,99164.31
2023-11-14T08:58:20.671Z,99162.25
2023-11-14T09:00:48.293Z,99163.91
2023-11-14T09:03:14.882Z,99189.88
2023-11-14T09:05:41.446Z,99170.63
2023-11-14T09:08:08.041Z,99172.47
2023-11-14T09:10:34.625Z,99156.47
2023-11-14T09:13:01.121Z,99184.19
2023-11-14T09:15:27.792Z,99180.53
2023-11-14T09:17:56.668Z,99184.59
2023-11-14T09:20:26.200Z,99190.63
2023-11-14T09:22:54.166Z,99220.59
2023-11-14T09:25:21.755Z,99196.66
2023-11-14T09:27:48.313Z,99201.50
2023-11-14T09:30:15.523Z,99209.50
2023-11-14T09:32:42.477Z,99218.72
2023-11-14T09:35:11.642Z,99208.72
2023-11-14T09:37:38.564Z,99214.75
2023-11-14T09:40:09.521Z,99219.00
2023-11-14T09:42:36.854Z,99220.38
2023-11-14T09:45:06.153Z,99222.75
2023-11-14T09:47:32.890Z,99204.59
2023-11-14T09:50:00.598Z,99179.59
2023-11-14T09:52:27.547Z,99171.69
2023-11-14T09:54:54.460Z,99159.88
2023-11-14T09:57:22.269Z,99151.03
2023-11-14T09:59:51.270Z,99166.25
2023-11-14T10:02:17.882Z,99140.97
2023-11-14T10:04:44.432Z,99167.00
2023-11-14T10:07:18.793Z,99174.78
2023-11-14T10:09:47.197Z,99191.50
2023-11-14T10:12:21.298Z,99183.31
2023-11-14T10:14:52.011Z,99195.66
2023-11-14T10:17:20.376Z,99190.72
2023-11-14T10:20:07.359Z,99183.84
2023-11-14T10:22:36.341Z,99187.72
2023-11-14T10:25:04.009Z,99206.00
2023-11-14T10:27:38.159Z,99198.47
2023-11-14T10:30:05.650Z,99196.16
2023-11-14T10:32:32.504Z,99174.72
2023-11-14T10:35:16.914Z,99154.84
2023-11-14T10:37:43.570Z,99161.72
2023-11-14T10:40:11.980Z,99148.75
2023-11-14T10:42:38.833Z,99163.19
2023-11-14T10:45:10.830Z,99145.50
2023-11-14T10:47:37.781Z,99147.28
2023-11-14T10:50:06.144Z,99145.06
2023-11-14T10:52:37.609Z,99156.03
2023-11-14T10:55:06.783Z,99159.22
2023-11-14T10:57:34.976Z,99139.91
2023-11-14T11:00:01.967Z,99141.66
2023-11-14T11:02:34.185Z,99149.09
2023-11-14T11:05:04.313Z,99150.75
2023-11-14T11:07:31.433Z,99140.88
2023-11-14T11:09:58.067Z,99136.47
2023-11-14T11:12:28.085Z,99141.66
2023-11-14T11:14:55.041Z,99130.34
2023-11-14T11:17:46.945Z,99127.00
2023-11-14T11:20:24.484Z,99116.28
2023-11-14T11:23:13.058Z,99122.31
2023-11-14T11:25:46.199Z,99123.78
2023-11-14T11:28:21.881Z,99122.41
2023-11-14T11:31:07.434Z,99131.34
2023-11-14T11:33:39.594Z,99129.28
2023-11-14T11:36:36.565Z,99143.31
2023-11-14T11:39:04.717Z,99122.88
2023-11-14T11:41:35.731Z,99126.56
2023-11-14T11:44:06.254Z,99131.34
2023-11-14T11:46:41.156Z,99125.72
2023-11-14T11:49:14.086Z,99128.22
2023-11-14T11:51:50.846Z,99136.59
2023-11-14T11:54:26.442Z,99134.50
2023-11-14T11:57:06.184Z,99123.69
2023-11-14T11:59:53.531Z,99122.81
2023-11-14T12:02:25.195Z,99095.25
2023-11-14T12:04:57.220Z,99106.59
2023-11-14T12:07:24.602Z,99086.44
2023-11-14T12:09:54.512Z,99095.34
2023-11-14T12:12:21.152Z,99082.22
2023-11-14T12:14:47.788Z,99105.97
2023-11-14T12:17:15.181Z,99102.16
2023-11-14T12:19:41.869Z,99105.13
2023-11-14T12:22:09.118Z,99103.56
2023-11-14T12:24:35.804Z,99092.03
2023-11-14T12:27:02.443Z,99119.75
2023-11-14T12:29:29.743Z,99105.25
2023-11-14T12:31:57.083Z,99108.75
2023-11-14T12:34:31.074Z,99102.69
2023-11-14T12:37:09.218Z,99115.53
2023-11-14T12:39:36.005Z,99107.88
2023-11-14T12:42:02.777Z,99108.91
2023-11-14T12:44:29.426Z,99117.75
2023-11-14T12:46:56.212Z,99116.22
2023-11-14T12:49:23.889Z,99111.38
2023-11-14T12:51:53.375Z,99140.38
2023-11-14T12:54:24.684Z,99142.28
2023-11-14T12:56:52.690Z,99130.00
2023-11-14T12:59:20.661Z,99128.09
2023-11-14T13:01:50.225Z,99107.25
2023-11-14T13:04:17.967Z,99101.81
2023-11-14T13:06:47.107Z,99103.97
2023-11-14T13:09:17.219Z,99111.00
2023-11-14T13:11:44.341Z,99132.38
2023-11-14T13:14:12.104Z,99152.31
2023-11-14T13:16:40.006Z,99136.13
2023-11-14T13:19:07.033Z,99141.47
2023-11-14T13:21:34.726Z,99147.13
2023-11-14T13:24:02.749Z,99151.97
2023-11-14T13:26:29.753Z,99136.41
2023-11-14T13:28:56.534Z,99129.78
2023-11-14T13:31:23.301Z,99126.72
2023-11-14T13:33:52.176Z,99109.28
2023-11-14T13:36:21.301Z,99112.13
2023-11-14T13:38:48.210Z,99101.38
2023-11-14T13:41:16.901Z,99082.16
2023-11-14T13:43:44.189Z,99109.66
2023-11-14T13:46:20.940Z,99123.13
2023-11-14T13:48:54.043Z,99151.56
2023-11-14T13:51:20.868Z,99147.78
2023-11-14T13:53:47.365Z,99148.00
2023-11-14T13:56:14.046Z,99140.69
2023-11-14T13:58:41.246Z,99131.34
2023-11-14T14:01:10.367Z,99129.47
2023-11-14T14:03:38.672Z,99117.31
2023-11-14T14:06:10.584Z,99106.94
2023-11-14T14:08:37.786Z,99097.72
2023-11-14T14:11:08.218Z,99097.59
2023-11-14T14:13:35.786Z,99101.38
2023-11-14T14:16:04.157Z,99112.34
2023-11-14T14:18:32.753Z,99133.84
2023-11-14T14:21:03.901Z,99125.78
2023-11-14T14:23:31.407Z,99140.56
2023-11-14T14:25:58.660Z,99166.28
2023-11-14T14:28:31.018Z,99162.44
2023-11-14T14:31:00.341Z,99156.19
2023-11-14T14:33:26.936Z,99136.44
2023-11-14T14:35:54.139Z,99143.03
2023-11-14T14:38:23.788Z,99144.34
2023-11-14T14:40:50.591Z,99148.47
2023-11-14T14:43:17.599Z,99138.00
2023-11-14T14:45:47.921Z,99119.81
2023-11-14T14:48:14.909Z,99130.63
2023-11-14T14:50:41.568Z,99119.06
2023-11-14T14:53:11.302Z,99139.63
2023-11-14T14:55:37.957Z,99138.78
2023-11-14T14:58:07.609Z,99148.00
2023-11-14T15:00:34.410Z,99153.66
2023-11-14T15:03:02.335Z,99138.56
2023-11-14T15:05:36.603Z,99142.09
2023-11-14T15:08:04.966Z,99104.22
2023-11-14T15:10:31.790Z,99139.03
2023-11-14T15:13:00.304Z,99127.81
2023-11-14T15:15:27.976Z,99096.78
2023-11-14T15:17:58.008Z,99082.38
2023-11-14T15:20:25.692Z,99106.59
2023-11-14T15:22:53.124Z,99126.75
2023-11-14T15:25:19.866Z,99136.69
2023-11-14T15:27:46.647Z,99122.97
2023-11-14T15:30:13.997Z,99132.53
2023-11-14T15:32:41.057Z,99119.78
2023-11-14T15:35:08.538Z,99129.69
2023-11-14T15:37:36.383Z,99122.03
2023-11-14T15:40:09.306Z,99112.13
2023-11-14T15:42:36.205Z,99100.81
2023-11-14T15:45:04.678Z,99125.09
2023-11-14T15:47:31.474Z,99127.69
2023-11-14T15:49:58.441Z,99127.44
2023-11-14T15:52:25.013Z,99132.16
2023-11-14T15:54:53.221Z,99150.81
2023-11-14T15:57:21.520Z,99139.34
2023-11-14T15:59:48.610Z,99135.94
2023-11-14T16:02:15.198Z,99123.53
2023-11-14T16:04:41.987Z,99134.50
2023-11-14T16:07:09.226Z,99137.56
2023-11-14T16:09:36.603Z,99151.50
2023-11-14T16:12:03.561Z,99153.13
2023-11-14T16:14:30.967Z,99147.13
2023-11-14T16:16:57.600Z,99150.44
2023-11-14T16:19:24.118Z,99151.97
2023-11-14T16:21:50.587Z,99170.59
2023-11-14T16:24:17.126Z,99178.19
2023-11-14T16:26:43.657Z,99170.41
2023-11-14T16:29:10.274Z,99184.22
2023-11-14T16:31:38.508Z,99198.34
2023-11-14T16:34:06.328Z,99193.97
2023-11-14T16:36:33.086Z,99192.09
2023-11-14T16:38:59.730Z,99192.94
2023-11-14T16:41:26.438Z,99192.59
2023-11-14T16:43:55.096Z,99185.13
2023-11-14T16:46:21.922Z,99173.94
2023-11-14T16:48:48.704Z,99177.94
2023-11-14T16:51:22.468Z,99167.06
2023-11-14T16:53:49.632Z,99170.06
2023-11-14T16:56:16.781Z,99164.63
2023-11-14T16:58:43.474Z,99169.22
2023-11-14T17:01:10.052Z,99164.97
2023-11-14T17:03:36.665Z,99164.63
2023-11-14T17:06:03.400Z,99157.66
2023-11-14T17:08:31.217Z,99149.19
2023-11-14T17:10:57.951Z,99153.31
2023-11-14T17:13:25.893Z,99147.63
2023-11-14T17:15:54.144Z,99157.47
2023-11-14T17:18:20.771Z,99152.84
2023-11-14T17:20:47.516Z,99142.22
2023-11-14T17:23:14.193Z,99151.56
2023-11-14T17:25:41.021Z,99139.72
2023-11-14T17:28:07.524Z,99143.88
2023-11-14T17:30:34.648Z,99146.97
2023-11-14T17:33:01.335Z,99146.00
2023-11-14T17:35:27.915Z,99131.59
2023-11-14T17:37:54.452Z,99138.00
2023-11-14T17:40:20.946Z,99145.88
2023-11-14T17:42:47.428Z,99129.34
2023-11-14T17:45:14.024Z,99133.72
2023-11-14T17:47:40.629Z,99135.50
2023-11-14T17:50:09.412Z,99134.19
2023-11-14T17:52:36.374Z,99134.09
2023-11-14T17:55:03.194Z,99123.81
2023-11-14T17:57:29.943Z,99135.16
2023-11-14T17:59:56.831Z,99127.34
2023-11-14T18:02:23.406Z,99132.53
2023-11-14T18:04:50.295Z,99138.56
2023-11-14T18:07:16.784Z,99119.19
2023-11-14T18:09:43.708Z,99127.22
2023-11-14T18:12:10.209Z,99115.41
2023-11-14T18:14:36.886Z,99109.53
2023-11-14T18:17:04.839Z,99118.25
2023-11-14T18:19:31.482Z,99124.84
2023-11-14T18:21:59.369Z,99109.53
2023-11-14T18:24:26.709Z,99106.00
2023-11-14T18:26:55.025Z,99081.09
2023-11-14T18:29:21.642Z,99093.81
2023-11-14T18:31:49.032Z,99091.34
2023-11-14T18:34:15.977Z,99074.59
2023-11-14T18:36:42.534Z,99088.72
2023-11-14T18:39:09.063Z,99083.34
2023-11-14T18:41:35.682Z,99078.84
2023-11-14T18:44:02.288Z,99091.47
2023-11-14T18:46:29.766Z,99096.03
2023-11-14T18:48:56.771Z,99101.72
2023-11-14T18:51:23.328Z,99100.78
2023-11-14T18:53:49.990Z,99101.38
2023-11-14T18:56:16.648Z,99102.53
2023-11-14T18:58:43.742Z,99090.88
2023-11-14T19:01:11.270Z,99090.41
2023-11-14T19:03:37.988Z,99092.75
2023-11-14T19:06:05.327Z,99083.09
2023-11-14T19:08:32.460Z,99063.25
2023-11-14T19:10:59.103Z,99048.16
2023-11-14T19:13:25.724Z,99032.50
2023-11-14T19:15:52.325Z,99027.53
2023-11-14T19:18:19.588Z,99024.72
2023-11-14T19:21:10.108Z,99027.41
2023-11-14T19:23:42.540Z,99027.06
2023-11-14T19:26:11.353Z,99020.56
2023-11-14T19:28:39.391Z,99016.66
2023-11-14T19:31:05.959Z,99022.44
2023-11-14T19:33:33.493Z,99031.53
2023-11-14T19:35:59.986Z,99007.22
2023-11-14T19:38:26.550Z,98987.28
2023-11-14T19:40:53.121Z,98993.31
2023-11-14T19:43:19.847Z,98979.50
2023-11-14T19:45:46.509Z,98963.81
2023-11-14T19:48:13.177Z,98958.38
2023-11-14T19:50:39.804Z,98950.47
2023-11-14T19:53:06.383Z,98950.81
2023-11-14T19:55:33.719Z,98956.81
2023-11-14T19:58:00.350Z,98956.34
2023-11-14T20:00:26.945Z,98932.00
2023-11-14T20:02:53.638Z,98932.72
2023-11-14T20:05:20.441Z,98950.19
2023-11-14T20:07:47.014Z,98965.53
2023-11-14T20:10:14.836Z,98962.38
2023-11-14T20:12:44.455Z,98969.19
2023-11-14T20:15:14.239Z,98963.16
2023-11-14T20:17:42.838Z,98953.50
2023-11-14T20:20:12.801Z,98924.22
2023-11-14T20:22:39.841Z,98916.53
2023-11-14T20:25:06.760Z,98915.69
2023-11-14T20:27:34.939Z,98906.97
2023-11-14T20:30:02.343Z,98919.00
2023-11-14T20:32:29.037Z,98903.91
2023-11-14T20:34:55.978Z,98912.41
2023-11-14T20:37:22.814Z,98921.88
2023-11-14T20:39:49.477Z,98900.94
2023-11-14T20:42:16.133Z,98892.84
2023-11-14T20:44:45.219Z,98916.78
2023-11-14T20:47:12.662Z,98919.28
2023-11-14T20:49:39.292Z,98911.25
2023-11-14T20:52:08.963Z,98911.25
2023-11-14T20:54:35.883Z,98900.19
2023-11-14T20:57:02.984Z,98921.06
2023-11-14T20:59:29.564Z,98932.53
2023-11-14T21:01:57.033Z,98942.75
2023-11-14T21:04:23.856Z,98941.25
2023-11-14T21:06:50.658Z,98920.97
2023-11-14T21:09:18.210Z,98918.81
2023-11-14T21:11:45.432Z,98917.88
2023-11-14T21:14:12.038Z,98913.63
2023-11-14T21:16:39.504Z,98905.38
2023-11-14T21:19:06.119Z,98899.13
2023-11-14T21:21:32.761Z,98905.00
2023-11-14T21:23:59.975Z,98925.47
2023-11-14T21:26:28.911Z,98914.63
2023-11-14T21:28:55.481Z,98924.53
2023-11-14T21:31:22.128Z,98898.09
2023-11-14T21:33:50.263Z,98901.16
2023-11-14T21:36:16.947Z,98898.56
2023-11-14T21:38:43.540Z,98893.28
2023-11-14T21:41:10.092Z,98885.28
2023-11-14T21:43:36.751Z,98892.44
2023-11-14T21:46:03.512Z,98877.34
2023-11-14T21:48:30.074Z,98886.53
2023-11-14T21:50:56.970Z,98893.16
2023-11-14T21:53:23.834Z,98891.28
2023-11-14T21:55:50.412Z,98875.94
2023-11-14T21:58:17.094Z,98876.19
2023-11-14T22:00:43.788Z,98863.34
2023-11-14T22:03:10.677Z,98874.44
2023-11-14T22:05:37.365Z,98859.47
2023-11-14T22:08:04.066Z,98854.28
2023-11-14T22:10:31.136Z,98862.75
2023-11-14T22:12:57.889Z,98851.22
2023-11-14T22:15:24.490Z,98870.69
2023-11-14T22:17:51.042Z,98874.22
2023-11-14T22:20:17.871Z,98866.44
2023-11-14T22:22:44.422Z,98857.38
2023-11-14T22:25:10.932Z,98870.56
2023-11-14T22:27:37.550Z,98870.56
2023-11-14T22:30:05.564Z,98857.13
2023-11-14T22:32:32.733Z,98870.31
2023-11-14T22:35:01.279Z,98857.59
2023-11-14T22:37:29.289Z,98872.81
2023-11-14T22:39:55.921Z,98857.25
2023-11-14T22:42:22.704Z,98826.47
2023-11-14T22:44:49.319Z,98832.34
2023-11-14T22:47:16.114Z,98835.78
2023-11-14T22:49:44.509Z,98814.91
2023-11-14T22:52:11.525Z,98829.28
2023-11-14T22:54:38.117Z,98828.50
2023-11-14T22:57:05.037Z,98826.00
2023-11-14T22:59:31.605Z,98829.53
2023-11-14T23:01:59.957Z,98823.19
2023-11-14T23:04:26.616Z,98855.97
2023-11-14T23:06:55.517Z,98846.28
2023-11-14T23:09:24.288Z,98845.81
2023-11-14T23:11:55.086Z,98853.84
2023-11-14T23:14:21.785Z,98828.84
2023-11-14T23:16:50.104Z,98837.78
2023-11-14T23:19:17.649Z,98841.31
2023-11-14T23:21:49.244Z,98843.81
2023-11-14T23:24:21.907Z,98867.25
2023-11-14T23:26:48.638Z,98856.31
2023-11-14T23:29:15.208Z,98867.50
2023-11-14T23:31:41.804Z,98861.16
2023-11-14T23:34:08.295Z,98858.31
2023-11-14T23:36:34.766Z,98860.31
2023-11-14T23:39:01.340Z,98856.19
2023-11-14T23:41:28.914Z,98839.72
2023-11-14T23:43:56.334Z,98861.63
2023-11-14T23:46:24.316Z,98840.53
2023-11-14T23:48:51.875Z,98851.50
2023-11-14T23:51:19.199Z,98854.09
2023-11-14T23:53:46.025Z,98853.34
2023-11-14T23:56:13.734Z,98843.94
2023-11-14T23:58:40.434Z,98840.53
